Time;durP1;ratioP1;P1;durP2;ratioP2;P2;SDS_P1;SDS_P2;PMS_P1;PMS_P2;Temp;Humidity;BMP_temperature;BMP_pressure;BME280_temperature;BME280_humidity;BME280_pressure;Samples;Min_cycle;Max_cycle;Signal;HPM_P1;HPM_P2
2023/04/16 00:02:11;;;;;;;;;;;;;;;15.65;43.40;100465.22;4949610;28;106312;-69
2023/04/16 00:04:37;;;;;;;;;;;;;;;15.63;43.74;100470.09;4969210;27;113640;-70
2023/04/16 00:07:03;;;;;;;;;;;;;;;15.60;43.51;100465.28;4972561;27;99699;-69
2023/04/16 00:09:28;;;;;;;;;;;;;;;15.60;43.57;100478.03;4969863;28;128264;-66
2023/04/16 00:11:54;;;;;;;;;;;;;;;15.57;43.53;100478.66;4975202;27;126412;-66
2023/04/16 00:14:20;;;;;;;;;;;;;;;15.56;43.70;100482.47;4953081;28;122823;-67
2023/04/16 00:16:46;;;;;;;;;;;;;;;15.54;43.86;100485.50;4972908;27;125465;-67
2023/04/16 00:19:12;;;;;;;;;;;;;;;15.53;43.80;100483.91;4974747;27;99324;-66
2023/04/16 00:21:38;;;;;;;;;;;;;;;15.52;43.86;100493.13;4971062;28;127608;-70
2023/04/16 00:24:04;;;;;;;;;;;;;;;15.51;43.86;100482.56;4954265;28;121968;-67
2023/04/16 00:26:30;;;;;;;;;;;;;;;15.50;43.57;100489.91;4955129;28;116066;-70
2023/04/16 00:28:56;;;;;;;;;;;;;;;15.49;43.54;100487.53;4951320;28;98293;-68
2023/04/16 00:31:29;;;;;;;;;;;;;;;15.47;43.72;100488.59;4935608;27;123212;-67
2023/04/16 00:33:55;;;;;;;;;;;;;;;15.48;43.76;100489.41;4973328;27;97923;-67
2023/04/16 00:36:22;;;;;;;;;;;;;;;15.46;43.54;100488.91;4970337;27;126499;-67
2023/04/16 00:38:48;;;;;;;;;;;;;;;15.45;43.46;100481.88;4969777;27;125647;-70
2023/04/16 00:41:14;;;;;;;;;;;;;;;15.44;43.55;100486.50;4969480;27;126352;-66
2023/04/16 00:43:40;;;;;;;;;;;;;;;15.43;43.78;100493.03;4953850;28;121825;-69
2023/04/16 00:46:06;;;;;;;;;;;;;;;15.44;43.54;100485.66;4973216;27;99158;-66
2023/04/16 00:48:33;;;;;;;;;;;;;;;15.42;43.93;100488.69;4937839;28;97991;-70
2023/04/16 00:51:00;;;;;;;;;;;;;;;15.41;43.92;100484.38;4975423;27;100640;-70
2023/04/16 00:53:26;;;;;;;;;;;;;;;15.41;43.50;100489.00;4972518;27;98094;-70
2023/04/16 00:55:52;;;;;;;;;;;;;;;15.40;43.44;100495.53;4968892;27;122478;-70
2023/04/16 00:58:18;;;;;;;;;;;;;;;15.39;43.71;100492.00;4951633;27;98509;-67
2023/04/16 01:00:44;;;;;;;;;;;;;;;15.38;43.91;100486.88;4952894;28;127232;-67
2023/04/16 01:03:10;;;;;;;;;;;;;;;15.38;43.58;100486.88;4968491;27;121829;-67
2023/04/16 01:05:36;;;;;;;;;;;;;;;15.37;43.60;100490.72;4956070;28;99214;-69
2023/04/16 01:08:02;;;;;;;;;;;;;;;15.36;43.74;100495.31;4971161;27;116244;-67
2023/04/16 01:10:28;;;;;;;;;;;;;;;15.36;43.75;100494.50;4949865;28;126957;-67
2023/04/16 01:12:54;;;;;;;;;;;;;;;15.35;43.70;100495.63;4970199;28;122614;-67
2023/04/16 01:15:20;;;;;;;;;;;;;;;15.34;43.64;100500.25;4971424;27;98204;-70
2023/04/16 01:17:45;;;;;;;;;;;;;;;15.34;43.49;100497.53;4968131;27;127827;-70
2023/04/16 01:20:11;;;;;;;;;;;;;;;15.33;43.55;100497.84;4970444;27;104620;-67
2023/04/16 01:22:37;;;;;;;;;;;;;;;15.33;43.49;100506.78;4955982;28;122259;-67
2023/04/16 01:25:03;;;;;;;;;;;;;;;15.33;43.61;100497.84;4970118;27;128176;-70
2023/04/16 01:27:30;;;;;;;;;;;;;;;15.33;43.94;100503.28;4969029;28;98504;-66
2023/04/16 01:29:56;;;;;;;;;;;;;;;15.31;43.51;100500.03;4971163;27;98195;-70
2023/04/16 01:32:21;;;;;;;;;;;;;;;15.31;43.71;100502.75;4955955;28;98750;-67
2023/04/16 01:34:47;;;;;;;;;;;;;;;15.30;43.90;100504.66;4968275;27;126274;-69
2023/04/16 01:37:13;;;;;;;;;;;;;;;15.30;43.66;100506.59;4970704;27;125582;-70
2023/04/16 01:39:39;;;;;;;;;;;;;;;15.30;43.70;100509.28;4951061;28;127537;-67
2023/04/16 01:42:05;;;;;;;;;;;;;;;15.28;43.84;100501.44;4973562;27;98050;-66
2023/04/16 01:44:31;;;;;;;;;;;;;;;15.28;43.51;100497.91;4968019;27;129082;-69
2023/04/16 01:46:57;;;;;;;;;;;;;;;15.28;43.60;100506.88;4969629;27;127425;-69
2023/04/16 01:49:23;;;;;;;;;;;;;;;15.27;43.75;100504.44;4959880;27;107634;-66
2023/04/16 01:51:49;;;;;;;;;;;;;;;15.29;43.58;100502.22;4953385;28;107744;-70
2023/04/16 01:54:15;;;;;;;;;;;;;;;15.27;43.67;100507.97;4969648;27;103454;-67
2023/04/16 01:56:41;;;;;;;;;;;;;;;15.26;43.53;100500.94;4973203;27;98747;-69
2023/04/16 01:59:07;;;;;;;;;;;;;;;15.26;43.75;100498.22;4934627;28;127271;-69
2023/04/16 02:01:33;;;;;;;;;;;;;;;15.26;43.51;100502.84;4969178;27;122479;-67
2023/04/16 02:03:59;;;;;;;;;;;;;;;15.25;43.73;100501.22;4937498;27;98207;-69
2023/04/16 02:06:26;;;;;;;;;;;;;;;15.23;43.82;100507.75;4959718;28;100007;-67
2023/04/16 02:08:52;;;;;;;;;;;;;;;15.24;43.81;100497.69;4970645;27;98028;-70
2023/04/16 02:11:18;;;;;;;;;;;;;;;15.24;43.91;100503.13;4975542;27;98184;-70
2023/04/16 02:13:44;;;;;;;;;;;;;;;15.23;43.44;100504.25;4968391;27;107852;-68
2023/04/16 02:16:10;;;;;;;;;;;;;;;15.22;43.83;100516.22;4944394;27;128141;-67
2023/04/16 02:18:36;;;;;;;;;;;;;;;15.21;43.90;100509.97;4970488;27;98198;-67
2023/04/16 02:21:02;;;;;;;;;;;;;;;15.21;43.70;100517.31;4968602;27;121643;-67
2023/04/16 02:23:27;;;;;;;;;;;;;;;15.21;43.84;100511.91;4971415;27;98923;-69
2023/04/16 02:25:53;;;;;;;;;;;;;;;15.20;43.56;100515.69;4968423;27;128369;-67
2023/04/16 02:28:19;;;;;;;;;;;;;;;15.20;43.86;100521.13;4967276;27;98518;-67
2023/04/16 02:30:45;;;;;;;;;;;;;;;15.20;43.49;100523.84;4975031;27;98542;-69
2023/04/16 02:33:11;;;;;;;;;;;;;;;15.18;43.66;100524.13;4949215;28;118017;-68
2023/04/16 02:35:37;;;;;;;;;;;;;;;15.18;43.80;100523.34;4971573;27;113360;-69
2023/04/16 02:38:03;;;;;;;;;;;;;;;15.17;43.86;100530.69;4966808;27;113993;-67
2023/04/16 02:40:29;;;;;;;;;;;;;;;15.17;43.91;100533.41;4970907;27;122495;-67
2023/04/16 02:42:56;;;;;;;;;;;;;;;15.17;43.56;100538.81;4965124;27;126148;-67
2023/04/16 02:45:22;;;;;;;;;;;;;;;15.16;43.68;100539.91;4968380;27;99661;-68
2023/04/16 02:47:48;;;;;;;;;;;;;;;15.16;43.52;100539.09;4973431;27;98165;-66
2023/04/16 02:50:14;;;;;;;;;;;;;;;15.16;43.67;100536.38;4969552;27;98028;-68
2023/04/16 02:52:40;;;;;;;;;;;;;;;15.14;43.60;100528.56;4971827;27;98710;-67
2023/04/16 02:55:06;;;;;;;;;;;;;;;15.13;43.92;100526.94;4973005;27;99228;-66
2023/04/16 02:57:32;;;;;;;;;;;;;;;15.14;43.79;100536.69;4969618;27;124269;-68
2023/04/16 02:59:58;;;;;;;;;;;;;;;15.13;43.80;100532.38;4966448;27;119117;-67
2023/04/16 03:02:25;;;;;;;;;;;;;;;15.13;43.68;100539.69;4967330;27;123493;-69
2023/04/16 03:04:51;;;;;;;;;;;;;;;15.13;43.96;100534.25;4969252;27;98550;-68
2023/04/16 03:07:17;;;;;;;;;;;;;;;15.13;43.82;100539.69;4932655;27;127708;-69
2023/04/16 03:09:43;;;;;;;;;;;;;;;15.12;43.88;100543.50;4950200;28;98151;-66
2023/04/16 03:12:09;;;;;;;;;;;;;;;15.11;43.60;100548.13;4969174;27;98698;-69
2023/04/16 03:14:35;;;;;;;;;;;;;;;15.11;43.64;100542.72;4970075;27;98549;-67
2023/04/16 03:17:01;;;;;;;;;;;;;;;15.11;43.66;100542.72;4969978;27;98188;-67
2023/04/16 03:19:26;;;;;;;;;;;;;;;15.10;43.69;100554.69;4936361;28;118137;-67
2023/04/16 03:21:52;;;;;;;;;;;;;;;15.10;43.79;100554.69;4968595;28;126963;-68
2023/04/16 03:24:18;;;;;;;;;;;;;;;15.09;43.63;100552.25;4963612;27;129064;-67
2023/04/16 03:26:44;;;;;;;;;;;;;;;15.09;43.75;100555.78;4970248;27;123813;-67
2023/04/16 03:29:10;;;;;;;;;;;;;;;15.07;43.94;100551.75;4969868;27;123013;-67
2023/04/16 03:31:36;;;;;;;;;;;;;;;15.07;43.96;100557.97;4971331;27;127390;-70
2023/04/16 03:34:02;;;;;;;;;;;;;;;15.06;43.64;100556.38;4968926;27;128270;-67
2023/04/16 03:36:28;;;;;;;;;;;;;;;15.13;43.97;100559.53;4967770;28;127286;-70
2023/04/16 03:38:54;;;;;;;;;;;;;;;15.21;43.89;100564.28;4970305;27;110330;-69
2023/04/16 03:41:20;;;;;;;;;;;;;;;15.27;43.57;100565.00;4952541;28;99458;-67
2023/04/16 03:43:46;;;;;;;;;;;;;;;15.33;43.90;100569.25;4950391;28;114404;-68
2023/04/16 03:46:11;;;;;;;;;;;;;;;15.37;43.58;100564.84;4941229;27;126709;-67
2023/04/16 03:48:37;;;;;;;;;;;;;;;15.42;43.76;100572.91;4968713;28;120092;-68
2023/04/16 03:51:03;;;;;;;;;;;;;;;15.45;43.69;100571.50;4966441;27;125213;-67
2023/04/16 03:53:29;;;;;;;;;;;;;;;15.47;43.79;100572.81;4949148;28;99801;-67
2023/04/16 03:55:55;;;;;;;;;;;;;;;15.50;43.85;100579.56;4970388;27;108718;-69
2023/04/16 03:58:21;;;;;;;;;;;;;;;15.52;43.62;100579.25;4968588;27;100439;-67
2023/04/16 04:00:47;;;;;;;;;;;;;;;15.54;43.86;100583.28;4952919;28;128364;-70
2023/04/16 04:03:15;;;;;;;;;;;;;;;15.54;43.63;100577.88;4968762;27;98602;-69
2023/04/16 04:05:41;;;;;;;;;;;;;;;15.56;43.68;100588.41;4970933;27;97922;-69
2023/04/16 04:08:07;;;;;;;;;;;;;;;15.57;43.75;100587.34;4963461;27;97995;-70
2023/04/16 04:10:34;;;;;;;;;;;;;;;15.57;43.98;100592.78;4970102;27;106823;-70
2023/04/16 04:13:01;;;;;;;;;;;;;;;15.58;43.97;100594.38;4969545;27;99418;-70
2023/04/16 04:15:27;;;;;;;;;;;;;;;15.56;43.93;100597.41;4965033;28;128699;-67
2023/04/16 04:17:53;;;;;;;;;;;;;;;15.58;43.91;100602.53;4967264;27;122480;-67
2023/04/16 04:20:19;;;;;;;;;;;;;;;15.56;43.79;100602.84;4972122;27;128052;-69
2023/04/16 04:22:45;;;;;;;;;;;;;;;15.56;43.96;100600.13;4922766;28;121491;-69
2023/04/16 04:25:11;;;;;;;;;;;;;;;15.56;43.96;100602.84;4969002;27;98175;-67
2023/04/16 04:27:36;;;;;;;;;;;;;;;15.56;43.70;100602.00;4970793;27;121850;-70
2023/04/16 04:30:03;;;;;;;;;;;;;;;15.57;43.79;100603.63;4950012;27;127105;-70
2023/04/16 04:32:30;;;;;;;;;;;;;;;15.57;43.70;100606.34;4947238;27;98750;-67
2023/04/16 04:34:56;;;;;;;;;;;;;;;15.56;43.78;100608.28;4953144;28;98062;-67
2023/04/16 04:37:22;;;;;;;;;;;;;;;15.56;43.97;100608.28;4970859;27;121912;-69
2023/04/16 04:39:48;;;;;;;;;;;;;;;15.55;43.79;100606.63;4955071;28;115249;-69
2023/04/16 04:42:17;;;;;;;;;;;;;;;15.55;43.94;100614.78;4965402;27;126438;-67
2023/04/16 04:44:43;;;;;;;;;;;;;;;15.56;43.92;100610.16;4972463;27;98112;-69
2023/04/16 04:47:10;;;;;;;;;;;;;;;15.55;43.61;100613.97;4949128;28;116980;-67
2023/04/16 04:49:35;;;;;;;;;;;;;;;15.54;44.00;100618.63;4970873;27;98468;-67
2023/04/16 04:52:01;;;;;;;;;;;;;;;15.53;43.64;100606.13;4971832;27;127568;-70
2023/04/16 04:54:29;;;;;;;;;;;;;;;15.54;43.77;100617.81;4969304;28;128027;-70
2023/04/16 04:56:55;;;;;;;;;;;;;;;15.54;43.78;100625.97;4973442;27;100778;-70
2023/04/16 04:59:21;;;;;;;;;;;;;;;15.54;43.73;100625.97;4974475;27;98408;-67
2023/04/16 05:01:47;;;;;;;;;;;;;;;15.53;43.65;100627.88;4971225;27;98371;-67
2023/04/16 05:04:13;;;;;;;;;;;;;;;15.53;43.87;100627.06;4970767;27;127470;-71
2023/04/16 05:06:39;;;;;;;;;;;;;;;15.53;43.91;100625.16;4973519;28;122043;-71
2023/04/16 05:09:05;;;;;;;;;;;;;;;15.54;43.81;100631.41;4971552;27;99977;-71
2023/04/16 05:11:32;;;;;;;;;;;;;;;15.55;43.75;100628.38;4973741;27;127678;-70
2023/04/16 05:13:58;;;;;;;;;;;;;;;15.55;43.67;100633.81;4970677;27;128496;-67
2023/04/16 05:16:24;;;;;;;;;;;;;;;15.55;43.63;100638.44;4969013;27;123371;-68
2023/04/16 05:18:50;;;;;;;;;;;;;;;15.56;43.71;100643.59;4973615;28;128095;-67
2023/04/16 05:21:16;;;;;;;;;;;;;;;15.58;43.99;100638.66;4972489;27;98348;-69
2023/04/16 05:23:42;;;;;;;;;;;;;;;15.58;43.89;100644.09;4953627;27;112121;-69
2023/04/16 05:26:08;;;;;;;;;;;;;;;15.60;43.89;100643.78;4946090;28;111984;-70
2023/04/16 05:28:34;;;;;;;;;;;;;;;15.63;43.68;100645.91;4945367;28;125967;-67
2023/04/16 05:31:00;;;;;;;;;;;;;;;15.65;43.78;100649.19;4931593;28;128288;-67
2023/04/16 05:33:26;;;;;;;;;;;;;;;15.67;43.57;100650.47;4944341;28;129535;-69
2023/04/16 05:35:52;;;;;;;;;;;;;;;15.71;43.67;100645.25;4944663;28;122012;-67
2023/04/16 05:38:17;;;;;;;;;;;;;;;15.74;43.57;100655.53;4946857;28;98140;-67
2023/04/16 05:40:43;;;;;;;;;;;;;;;15.77;43.48;100651.44;4946694;28;127541;-70
2023/04/16 05:43:09;;;;;;;;;;;;;;;15.81;43.56;100655.97;4943944;28;124725;-67
2023/04/16 05:45:39;;;;;;;;;;;;;;;15.85;43.44;100659.72;4945028;28;98236;-67
2023/04/16 05:48:07;;;;;;;;;;;;;;;15.88;43.42;100671.91;4942889;28;99093;-71
2023/04/16 05:50:33;;;;;;;;;;;;;;;15.90;43.54;100664.25;4929430;28;98463;-67
2023/04/16 05:52:59;;;;;;;;;;;;;;;15.94;43.45;100670.69;4928284;28;128520;-68
2023/04/16 05:55:24;;;;;;;;;;;;;;;15.99;43.48;100677.94;4946116;28;115372;-67
2023/04/16 05:57:50;;;;;;;;;;;;;;;16.01;43.34;100673.84;4948154;28;128033;-70
2023/04/16 06:00:16;;;;;;;;;;;;;;;16.03;43.46;100677.06;4930325;28;128762;-69
2023/04/16 06:02:42;;;;;;;;;;;;;;;16.07;43.48;100679.97;4946577;28;98018;-68
2023/04/16 06:05:08;;;;;;;;;;;;;;;16.09;43.42;100684.03;4929985;28;110477;-71
2023/04/16 06:07:34;;;;;;;;;;;;;;;16.12;43.43;100688.88;4942828;28;98537;-70
2023/04/16 06:10:00;;;;;;;;;;;;;;;16.15;43.46;100692.88;4920371;28;127597;-68
2023/04/16 06:12:26;;;;;;;;;;;;;;;16.19;43.47;100692.03;4914144;28;101315;-67
2023/04/16 06:14:52;;;;;;;;;;;;;;;16.25;43.53;100691.91;4922405;28;121677;-70
2023/04/16 06:17:18;;;;;;;;;;;;;;;16.31;43.36;100687.97;4909418;28;125892;-68
2023/04/16 06:19:45;;;;;;;;;;;;;;;16.36;43.42;100693.34;4926900;28;98416;-68
2023/04/16 06:22:10;;;;;;;;;;;;;;;16.44;43.21;100698.91;4882960;28;97938;-69
2023/04/16 06:24:36;;;;;;;;;;;;;;;16.51;43.21;100695.78;4922289;28;121553;-69
2023/04/16 06:27:02;;;;;;;;;;;;;;;16.56;43.28;100694.88;4915151;28;128261;-69
2023/04/16 06:29:28;;;;;;;;;;;;;;;16.62;43.13;100704.53;4926707;28;102808;-70
2023/04/16 06:31:54;;;;;;;;;;;;;;;16.65;43.28;100702.03;4906776;28;125487;-71
2023/04/16 06:34:20;;;;;;;;;;;;;;;16.68;43.24;100709.59;4926059;28;122654;-70
2023/04/16 06:36:46;;;;;;;;;;;;;;;16.71;43.25;100710.91;4915313;28;127597;-69
2023/04/16 06:39:12;;;;;;;;;;;;;;;16.75;43.17;100713.88;4914372;28;112516;-68
2023/04/16 06:41:38;;;;;;;;;;;;;;;16.76;43.18;100710.84;4928686;28;98792;-71
2023/04/16 06:44:04;;;;;;;;;;;;;;;16.81;43.30;100707.19;4906973;28;121527;-70
2023/04/16 06:46:30;;;;;;;;;;;;;;;16.85;43.16;100708.19;4927885;28;126261;-71
2023/04/16 06:48:56;;;;;;;;;;;;;;;16.89;43.09;100714.66;4895259;28;126067;-70
2023/04/16 06:51:21;;;;;;;;;;;;;;;16.95;43.05;100718.91;4925899;28;128124;-70
2023/04/16 06:53:48;;;;;;;;;;;;;;;17.05;42.98;100715.94;4904181;28;121854;-70
2023/04/16 06:56:14;;;;;;;;;;;;;;;17.17;43.06;100718.16;4926258;28;98510;-68
2023/04/16 06:58:40;;;;;;;;;;;;;;;17.30;42.91;100722.78;4927590;28;127640;-68
2023/04/16 07:01:06;;;;;;;;;;;;;;;17.37;42.87;100717.72;4927831;28;127663;-68
2023/04/16 07:03:32;;;;;;;;;;;;;;;17.40;42.91;100722.53;4927090;28;98190;-70
2023/04/16 07:05:58;;;;;;;;;;;;;;;17.44;42.83;100722.72;4925292;28;127990;-68
2023/04/16 07:08:23;;;;;;;;;;;;;;;17.50;42.94;100724.25;4923537;28;128456;-68
2023/04/16 07:10:49;;;;;;;;;;;;;;;17.58;42.80;100723.50;4965220;27;125674;-70
2023/04/16 07:13:17;;;;;;;;;;;;;;;17.65;42.93;100717.63;4964447;27;97901;-70
2023/04/16 07:15:43;;;;;;;;;;;;;;;17.76;42.73;100721.75;4967302;28;98094;-68
2023/04/16 07:18:09;;;;;;;;;;;;;;;17.85;42.81;100722.63;4966326;27;127853;-70
2023/04/16 07:20:35;;;;;;;;;;;;;;;17.99;42.65;100719.81;4966057;27;100883;-68
2023/04/16 07:23:01;;;;;;;;;;;;;;;18.13;42.59;100726.03;4950962;28;98397;-70
2023/04/16 07:25:27;;;;;;;;;;;;;;;18.25;42.43;100724.66;4964842;27;128613;-70
2023/04/16 07:27:52;;;;;;;;;;;;;;;18.29;42.51;100731.09;4969472;28;98877;-70
2023/04/16 07:30:18;;;;;;;;;;;;;;;18.35;42.50;100730.66;4935874;28;128287;-68
2023/04/16 07:32:44;;;;;;;;;;;;;;;18.43;42.58;100729.09;4949880;28;98185;-68
2023/04/16 07:35:10;;;;;;;;;;;;;;;18.57;42.39;100735.25;4964775;27;127620;-68
2023/04/16 07:37:36;;;;;;;;;;;;;;;18.75;42.36;100740.81;4968005;27;120607;-71
2023/04/16 07:40:03;;;;;;;;;;;;;;;18.82;42.18;100750.16;4967554;27;126335;-71
2023/04/16 07:42:29;;;;;;;;;;;;;;;18.84;42.50;100745.19;4968415;28;97973;-68
2023/04/16 07:44:55;;;;;;;;;;;;;;;18.90;42.57;100745.84;4965944;27;127509;-71
2023/04/16 07:47:21;;;;;;;;;;;;;;;18.97;42.33;100745.38;4966254;27;98946;-69
2023/04/16 07:49:48;;;;;;;;;;;;;;;19.07;42.39;100756.03;4966097;27;98741;-71
2023/04/16 07:52:14;;;;;;;;;;;;;;;19.12;42.23;100753.13;4966504;27;98173;-68
2023/04/16 07:54:40;;;;;;;;;;;;;;;19.18;42.45;100751.88;4953463;28;128491;-70
2023/04/16 07:57:06;;;;;;;;;;;;;;;19.29;42.42;100763.28;4966434;27;128636;-71
2023/04/16 07:59:32;;;;;;;;;;;;;;;19.41;42.20;100754.47;4963898;27;128215;-71
2023/04/16 08:01:58;;;;;;;;;;;;;;;19.57;42.28;100759.19;4966963;27;119607;-69
2023/04/16 08:04:24;;;;;;;;;;;;;;;19.75;42.06;100757.25;4948561;27;98311;-68
2023/04/16 08:06:50;;;;;;;;;;;;;;;19.94;41.91;100758.88;4948408;28;98759;-68
2023/04/16 08:09:17;;;;;;;;;;;;;;;20.08;41.83;100763.06;4951560;27;125914;-69
2023/04/16 08:11:43;;;;;;;;;;;;;;;20.21;41.77;100757.72;4964310;27;98488;-69
2023/04/16 08:14:10;;;;;;;;;;;;;;;20.39;41.64;100761.19;4935681;28;99460;-71
2023/04/16 08:16:36;;;;;;;;;;;;;;;20.63;41.48;100757.94;4965447;27;98172;-71
2023/04/16 08:19:02;;;;;;;;;;;;;;;20.93;41.38;100762.31;4966084;27;98053;-69
2023/04/16 08:21:29;;;;;;;;;;;;;;;21.27;41.00;100761.34;4967898;27;97854;-70
2023/04/16 08:23:55;;;;;;;;;;;;;;;21.55;41.11;100760.84;4956589;28;98574;-71
2023/04/16 08:26:21;;;;;;;;;;;;;;;21.78;40.86;100764.06;4968333;27;128165;-69
2023/04/16 08:28:47;;;;;;;;;;;;;;;21.91;40.96;100779.44;4955454;27;98085;-71
2023/04/16 08:31:13;;;;;;;;;;;;;;;22.09;41.00;100782.03;4971963;27;122587;-69
2023/04/16 08:33:39;;;;;;;;;;;;;;;22.41;40.71;100774.97;4969428;27;128102;-70
2023/04/16 08:36:05;;;;;;;;;;;;;;;22.66;40.51;100784.84;4949519;27;127509;-71
2023/04/16 08:38:31;;;;;;;;;;;;;;;22.89;40.54;100784.41;4968706;27;127059;-71
2023/04/16 08:40:59;;;;;;;;;;;;;;;23.20;40.46;100789.38;4965069;27;122538;-71
2023/04/16 08:43:25;;;;;;;;;;;;;;;23.66;40.11;100790.81;4948246;27;99457;-71
2023/04/16 08:45:52;;;;;;;;;;;;;;;24.46;39.25;100789.13;4954479;27;128376;-70
2023/04/16 08:48:19;;;;;;;;;;;;;;;25.39;38.79;100788.66;4948986;28;98579;-69
2023/04/16 08:50:45;;;;;;;;;;;;;;;25.69;39.00;100783.38;4955055;28;99997;-68
2023/04/16 08:53:11;;;;;;;;;;;;;;;25.98;39.07;100792.28;4932873;28;128256;-69
2023/04/16 08:55:38;;;;;;;;;;;;;;;25.67;39.53;100794.81;4942524;27;102810;-69
2023/04/16 08:58:12;;;;;;;;;;;;;;;25.45;39.93;100801.81;4074151;27;10000402;-68
2023/04/16 09:00:38;;;;;;;;;;;;;;;25.44;40.17;100799.41;4966092;27;123977;-68
2023/04/16 09:03:04;;;;;;;;;;;;;;;25.37;40.47;100791.78;4957310;28;98698;-70
2023/04/16 09:05:30;;;;;;;;;;;;;;;25.30;40.43;100799.88;4968764;27;122533;-68
2023/04/16 09:07:56;;;;;;;;;;;;;;;25.25;40.43;100797.41;4967121;27;128528;-68
2023/04/16 09:10:22;;;;;;;;;;;;;;;25.07;40.62;100796.16;4937015;28;98676;-68
2023/04/16 09:12:47;;;;;;;;;;;;;;;24.83;41.06;100800.69;4930008;28;127849;-68
2023/04/16 09:15:13;;;;;;;;;;;;;;;24.60;41.24;100802.47;4926111;28;120948;-71
2023/04/16 09:17:39;;;;;;;;;;;;;;;24.41;41.63;100798.47;4927304;28;121860;-68
2023/04/16 09:20:07;;;;;;;;;;;;;;;24.37;41.27;100808.56;4924286;28;127977;-68
2023/04/16 09:22:34;;;;;;;;;;;;;;;24.53;40.98;100802.31;4927814;28;98376;-70
2023/04/16 09:25:00;;;;;;;;;;;;;;;25.14;40.45;100807.38;4931844;28;100322;-70
2023/04/16 09:27:26;;;;;;;;;;;;;;;25.53;40.09;100804.72;4928190;28;127583;-70
2023/04/16 09:29:52;;;;;;;;;;;;;;;25.56;40.42;100806.78;4926566;28;127411;-69
2023/04/16 09:32:23;;;;;;;;;;;;;;;25.52;40.74;100803.94;4926886;28;127478;-70
2023/04/16 09:34:59;;;;;;;;;;;;;;;25.40;40.72;100801.28;4931194;28;119270;-69
2023/04/16 09:37:28;;;;;;;;;;;;;;;25.27;40.99;100802.56;4926078;28;99696;-70
2023/04/16 09:40:02;;;;;;;;;;;;;;;25.15;40.90;100807.03;4928291;28;121137;-69
2023/04/16 09:42:30;;;;;;;;;;;;;;;25.07;41.19;100807.97;4931104;28;98178;-69
2023/04/16 09:44:56;;;;;;;;;;;;;;;25.07;41.20;100812.69;4927032;28;98313;-71
2023/04/16 09:47:23;;;;;;;;;;;;;;;25.09;41.07;100810.38;4927418;28;98482;-69
2023/04/16 09:49:49;;;;;;;;;;;;;;;25.11;41.27;100814.44;4926573;28;123667;-70
2023/04/16 09:52:19;;;;;;;;;;;;;;;25.12;41.03;100809.72;4929730;28;99369;-69
2023/04/16 09:54:49;;;;;;;;;;;;;;;25.09;41.21;100811.22;4941289;28;99205;-69
2023/04/16 09:57:25;;;;;;;;;;;;;;;25.06;41.23;100817.41;4930000;28;98856;-70
2023/04/16 09:59:56;;;;;;;;;;;;;;;25.03;41.20;100809.84;4928188;28;99002;-69
2023/04/16 10:02:26;;;;;;;;;;;;;;;25.05;41.26;100813.06;4926179;28;98591;-70
2023/04/16 10:04:53;;;;;;;;;;;;;;;25.11;41.18;100822.69;4927177;28;99030;-69
2023/04/16 10:07:19;;;;;;;;;;;;;;;25.15;41.11;100822.75;4926469;28;99031;-69
2023/04/16 10:09:47;;;;;;;;;;;;;;;25.19;41.12;100815.38;4928268;28;100397;-69
2023/04/16 10:12:13;;;;;;;;;;;;;;;25.21;41.06;100822.13;4925556;28;98002;-69
2023/04/16 10:14:39;;;;;;;;;;;;;;;25.22;41.20;100822.94;4925546;28;122817;-70
2023/04/16 10:17:06;;;;;;;;;;;;;;;25.20;41.44;100825.28;4927304;28;98686;-70
2023/04/16 10:19:32;;;;;;;;;;;;;;;25.15;41.42;100829.09;4924680;28;98622;-70
2023/04/16 10:21:58;;;;;;;;;;;;;;;25.07;41.44;100827.28;4927471;28;98366;-69
2023/04/16 10:24:28;;;;;;;;;;;;;;;24.97;41.77;100828.63;4926579;28;98120;-69
2023/04/16 10:26:54;;;;;;;;;;;;;;;24.85;41.79;100837.00;4926709;28;99679;-69
2023/04/16 10:29:20;;;;;;;;;;;;;;;24.69;41.73;100828.72;4927627;28;99123;-69
2023/04/16 10:31:46;;;;;;;;;;;;;;;24.58;41.81;100838.66;4929302;28;99032;-69
2023/04/16 10:34:12;;;;;;;;;;;;;;;24.49;41.79;100841.56;4928458;28;105205;-70
2023/04/16 10:36:41;;;;;;;;;;;;;;;24.50;41.88;100839.59;4928063;28;127192;-69
2023/04/16 10:39:11;;;;;;;;;;;;;;;24.54;41.83;100837.75;4926643;28;98937;-69
2023/04/16 10:41:37;;;;;;;;;;;;;;;24.59;41.78;100836.69;4928699;28;98512;-70
2023/04/16 10:44:04;;;;;;;;;;;;;;;24.79;41.63;100837.59;4926870;28;98125;-70
2023/04/16 10:46:32;;;;;;;;;;;;;;;25.12;41.13;100840.03;4923467;28;99546;-70
2023/04/16 10:49:02;;;;;;;;;;;;;;;25.35;40.82;100843.75;4926413;28;98810;-69
2023/04/16 10:51:35;;;;;;;;;;;;;;;25.52;40.68;100844.53;4932991;28;119887;-70
2023/04/16 10:54:19;;;;;;;;;;;;;;;25.80;40.55;100842.41;4926222;28;98216;-70
2023/04/16 10:56:46;;;;;;;;;;;;;;;25.84;40.87;100848.03;4926544;28;98849;-70
2023/04/16 10:59:11;;;;;;;;;;;;;;;25.91;40.54;100848.97;4922979;28;125494;-69
2023/04/16 11:01:41;;;;;;;;;;;;;;;25.81;40.95;100844.00;4926784;28;119765;-69
2023/04/16 11:04:19;;;;;;;;;;;;;;;25.70;40.97;100849.28;4907252;28;98898;-69
2023/04/16 11:07:02;;;;;;;;;;;;;;;25.63;41.20;100845.56;4928417;28;99061;-69
2023/04/16 11:10:00;;;;;;;;;;;;;;;25.66;41.29;100848.41;4942442;27;98990;-70
2023/04/16 11:12:36;;;;;;;;;;;;;;;25.96;40.82;100856.16;4968741;27;98370;-70
2023/04/16 11:15:04;;;;;;;;;;;;;;;26.09;40.73;100854.84;4966975;27;98041;-69
2023/04/16 11:17:38;;;;;;;;;;;;;;;26.13;40.80;100857.69;4966421;27;98533;-69
2023/04/16 11:20:08;;;;;;;;;;;;;;;26.10;40.87;100858.44;4950312;28;101091;-71
2023/04/16 11:22:38;;;;;;;;;;;;;;;26.03;41.00;100861.84;4968512;27;103762;-71
2023/04/16 11:25:04;;;;;;;;;;;;;;;25.95;41.16;100865.63;4967737;27;98112;-71
2023/04/16 11:27:30;;;;;;;;;;;;;;;25.88;41.20;100857.16;4968012;27;98697;-71
2023/04/16 11:30:00;;;;;;;;;;;;;;;25.85;41.23;100864.22;4970385;27;127187;-71
2023/04/16 11:32:27;;;;;;;;;;;;;;;25.90;41.22;100863.94;4966523;27;98265;-72
2023/04/16 11:34:53;;;;;;;;;;;;;;;26.24;40.63;100857.91;4964024;27;97889;-70
2023/04/16 11:37:35;;;;;;;;;;;;;;;26.47;40.29;100858.00;4967951;27;99416;-70
2023/04/16 11:40:03;;;;;;;;;;;;;;;26.67;40.47;100870.63;4949558;27;98814;-69
2023/04/16 11:42:29;;;;;;;;;;;;;;;26.57;40.72;100863.72;4967072;27;98805;-71
2023/04/16 11:44:56;;;;;;;;;;;;;;;26.75;40.37;100866.81;4963305;27;97992;-71
2023/04/16 11:47:23;;;;;;;;;;;;;;;26.68;40.74;100864.75;4965756;27;98995;-69
2023/04/16 11:49:49;;;;;;;;;;;;;;;26.63;40.82;100861.47;4966705;27;98971;-71
2023/04/16 11:52:29;;;;;;;;;;;;;;;26.47;40.92;100867.09;4949176;27;126652;-71
2023/04/16 11:54:55;;;;;;;;;;;;;;;26.26;41.26;100870.22;4968523;27;98049;-71
2023/04/16 11:57:25;;;;;;;;;;;;;;;26.19;41.22;100870.06;4966400;27;98758;-71
2023/04/16 11:59:51;;;;;;;;;;;;;;;26.05;41.56;100867.78;4969360;27;99245;-71
2023/04/16 12:02:32;;;;;;;;;;;;;;;25.90;41.67;100872.22;4970775;27;98270;-69
2023/04/16 12:04:58;;;;;;;;;;;;;;;25.76;41.55;100869.13;4966562;27;121849;-71
2023/04/16 12:07:24;;;;;;;;;;;;;;;25.63;41.80;100879.47;4972219;27;99483;-69
2023/04/16 12:09:50;;;;;;;;;;;;;;;25.51;41.90;100876.84;4965764;27;127735;-69
2023/04/16 12:12:26;;;;;;;;;;;;;;;25.36;41.92;100874.91;4968298;27;125760;-68
2023/04/16 12:14:53;;;;;;;;;;;;;;;25.17;41.98;100878.38;4970342;27;97992;-71
2023/04/16 12:17:19;;;;;;;;;;;;;;;25.03;42.24;100876.00;4953162;27;98406;-72
2023/04/16 12:19:56;;;;;;;;;;;;;;;24.91;41.99;100876.91;4966477;27;99068;-71
2023/04/16 12:22:30;;;;;;;;;;;;;;;24.81;42.41;100877.44;4968039;27;98204;-71
2023/04/16 12:25:02;;;;;;;;;;;;;;;24.72;42.21;100879.56;4958623;28;98091;-68
2023/04/16 12:27:51;;;;;;;;;;;;;;;24.70;42.17;100888.16;4956788;28;100540;-72
2023/04/16 12:30:18;;;;;;;;;;;;;;;24.65;41.98;100879.38;4968593;27;98903;-72